createdAt,value
2022-10-11T11:43:09.811Z,2536.00
2022-10-11T11:44:09.711Z,2528.00
2022-10-11T11:46:15.045Z,2424.00
2022-10-11T11:47:14.984Z,2352.00
2022-10-11T11:49:19.366Z,2200.00
2022-10-11T11:50:19.236Z,2236.00
2022-10-11T11:51:19.169Z,2320.00
2022-10-11T11:52:19.119Z,2408.00
2022-10-11T11:53:19.054Z,2420.00
2022-10-11T11:54:18.991Z,2420.00
2022-10-11T11:55:18.933Z,2348.00
2022-10-11T11:56:18.879Z,2260.00
2022-10-11T11:57:18.807Z,2152.00
2022-10-11T11:58:18.748Z,1980.00
2022-10-11T11:59:18.687Z,1828.00
2022-10-11T12:00:18.634Z,1764.00
2022-10-11T12:01:18.575Z,1744.00
2022-10-11T12:02:18.531Z,1716.00
2022-10-11T12:03:18.443Z,1672.00
2022-10-11T12:04:18.380Z,1608.00
2022-10-11T12:05:18.325Z,1616.00
2022-10-11T12:06:18.255Z,1652.00
2022-10-11T12:07:18.206Z,1604.00
2022-10-11T12:08:18.164Z,1508.00
2022-10-11T12:09:18.079Z,1472.00
2022-10-11T12:10:18.021Z,1480.00
2022-10-11T12:11:17.957Z,1496.00
2022-10-11T12:12:17.891Z,1516.00
2022-10-11T12:13:17.837Z,1536.00
2022-10-11T12:14:17.781Z,1572.00
2022-10-11T12:15:17.725Z,1596.00
2022-10-11T12:16:17.674Z,1624.00
2022-10-11T12:17:17.596Z,1644.00
2022-10-11T12:18:17.529Z,1668.00
2022-10-11T12:19:17.485Z,1724.00
2022-10-11T12:20:17.406Z,1784.00
2022-10-11T12:21:17.346Z,1824.00
2022-10-11T12:22:17.314Z,1884.00
2022-10-11T12:23:19.965Z,2000.00
2022-10-11T12:24:17.162Z,2056.00
2022-10-11T12:25:18.667Z,2036.00
2022-10-11T12:26:17.044Z,1976.00
2022-10-11T12:27:16.980Z,1976.00
2022-10-11T12:28:16.986Z,2020.00
2022-10-11T12:29:16.861Z,2048.00
2022-10-11T12:30:16.798Z,2056.00
2022-10-11T12:31:16.733Z,2072.00
2022-10-11T12:32:16.677Z,2072.00
2022-10-11T12:33:16.614Z,2076.00
2022-10-11T12:34:16.554Z,2064.00
2022-10-11T12:35:16.505Z,2080.00
2022-10-11T12:36:16.432Z,2092.00
2022-10-11T12:37:16.368Z,2096.00
2022-10-11T12:38:16.332Z,2100.00
2022-10-11T12:39:16.267Z,2064.00
2022-10-11T12:40:16.186Z,2016.00
2022-10-11T12:41:16.133Z,1964.00
2022-10-11T12:42:16.067Z,1928.00
2022-10-11T12:43:16.017Z,1848.00
2022-10-11T12:44:15.950Z,1792.00
2022-10-11T12:45:15.883Z,1784.00
2022-10-11T12:46:15.818Z,1788.00
2022-10-11T12:47:15.758Z,1804.00
2022-10-11T12:48:15.703Z,1912.00
2022-10-11T12:49:15.636Z,1968.00
2022-10-11T12:50:15.577Z,1936.00
2022-10-11T12:51:15.519Z,1828.00
2022-10-11T12:52:15.448Z,1700.00
2022-10-11T12:53:15.399Z,1608.00
2022-10-11T12:54:26.571Z,1628.00
2022-10-11T12:55:15.268Z,1676.00
2022-10-11T12:56:15.209Z,1740.00
2022-10-11T12:57:15.146Z,1800.00
2022-10-11T12:58:15.079Z,1868.00
2022-10-11T12:59:15.020Z,1884.00
2022-10-11T13:00:14.969Z,1880.00
2022-10-11T13:01:14.963Z,1884.00
2022-10-11T13:02:14.838Z,1848.00
2022-10-11T13:03:14.777Z,1740.00
2022-10-11T13:04:14.718Z,1652.00
2022-10-11T13:05:14.681Z,1596.00
2022-10-11T13:06:14.600Z,1624.00
2022-10-11T13:07:14.532Z,1724.00
2022-10-11T13:08:14.472Z,1768.00
2022-10-11T13:09:14.412Z,1780.00
2022-10-11T13:10:14.355Z,1852.00
2022-10-11T13:11:14.290Z,1840.00
2022-10-11T13:12:14.228Z,1824.00
2022-10-11T13:13:14.168Z,1812.00
2022-10-11T13:14:14.151Z,1840.00
2022-10-11T13:15:14.042Z,1840.00
2022-10-11T13:16:13.980Z,1828.00
2022-10-11T13:17:13.921Z,1828.00
2022-10-11T13:18:13.885Z,1852.00
2022-10-11T13:19:13.796Z,1876.00
2022-10-11T13:20:13.747Z,1900.00
2022-10-11T13:21:13.701Z,1900.00
2022-10-11T13:22:13.613Z,1912.00
2022-10-11T13:23:13.553Z,1916.00
2022-10-11T13:24:13.490Z,1924.00
2022-10-11T13:25:13.428Z,2048.00
2022-10-11T13:26:13.367Z,2012.00
2022-10-11T13:27:13.307Z,2048.00
2022-10-11T13:28:13.257Z,2032.00
2022-10-11T13:29:13.190Z,1988.00
2022-10-11T13:30:13.122Z,2048.00
2022-10-11T13:31:13.093Z,2064.00
2022-10-11T13:32:12.997Z,1988.00
2022-10-11T13:33:12.938Z,1876.00
2022-10-11T13:34:12.873Z,1824.00
2022-10-11T13:35:12.816Z,1800.00
2022-10-11T13:36:12.758Z,1768.00
2022-10-11T13:37:12.691Z,1732.00
2022-10-11T13:38:12.634Z,1684.00
2022-10-11T13:39:12.569Z,1652.00
2022-10-11T13:40:12.505Z,1608.00
2022-10-11T13:41:12.452Z,1576.00
2022-10-11T13:42:12.387Z,1664.00
2022-10-11T13:43:12.325Z,1684.00
2022-10-11T13:44:12.266Z,1892.00
2022-10-11T13:45:12.207Z,1956.00
2022-10-11T13:46:12.145Z,2328.00
2022-10-11T13:47:12.083Z,2304.00
2022-10-11T13:48:12.025Z,2292.00
2022-10-11T13:49:11.960Z,2204.00
2022-10-11T13:50:11.902Z,2120.00
2022-10-11T13:51:11.838Z,2068.00
2022-10-11T13:52:11.776Z,2064.00
2022-10-11T13:53:11.716Z,1988.00
2022-10-11T13:54:13.748Z,1924.00
2022-10-11T13:55:11.605Z,1848.00
2022-10-11T13:56:11.529Z,1700.00
2022-10-11T13:57:11.472Z,1556.00
2022-10-11T13:58:16.231Z,1568.00
2022-10-11T13:59:11.350Z,1364.00
2022-10-11T14:00:11.306Z,1300.00
2022-10-11T14:01:11.245Z,1220.00
2022-10-11T14:02:11.165Z,1252.00
2022-10-11T14:03:11.114Z,1216.00
2022-10-11T14:04:11.043Z,1116.00
2022-10-11T14:05:10.982Z,1156.00
2022-10-11T14:06:10.921Z,1240.00
2022-10-11T14:07:10.856Z,1292.00
2022-10-11T14:08:10.797Z,1344.00
2022-10-11T14:09:10.735Z,1304.00
2022-10-11T14:10:10.675Z,1276.00
2022-10-11T14:11:10.612Z,1252.00
2022-10-11T14:12:10.552Z,1192.00
2022-10-11T14:13:10.492Z,1112.00
2022-10-11T14:14:10.428Z,1068.00
2022-10-11T14:15:10.363Z,1096.00
2022-10-11T14:16:10.306Z,1100.00
2022-10-11T14:17:10.248Z,1060.00
2022-10-11T14:18:10.183Z,1008.00
2022-10-11T14:19:10.118Z,940.00
2022-10-11T14:20:11.565Z,908.00
2022-10-11T14:21:09.998Z,904.00
2022-10-11T14:22:09.937Z,920.00
2022-10-11T14:23:09.876Z,896.00
2022-10-11T14:24:09.814Z,884.00
2022-10-11T14:25:09.773Z,880.00
2022-10-11T14:26:09.693Z,880.00
2022-10-11T14:27:09.632Z,896.00
2022-10-11T14:28:09.585Z,920.00
2022-10-11T14:29:09.505Z,952.00
2022-10-11T14:30:26.463Z,984.00
2022-10-11T14:31:09.386Z,1000.00
2022-10-11T14:32:09.323Z,1012.00
2022-10-11T14:33:09.267Z,1028.00
2022-10-11T14:34:09.200Z,1036.00
2022-10-11T14:35:09.140Z,1036.00
2022-10-11T14:36:09.237Z,1024.00
2022-10-11T14:37:09.024Z,1008.00
2022-10-11T14:38:17.599Z,1000.00
2022-10-11T14:40:02.258Z,1052.00
2022-10-11T14:41:02.170Z,1112.00
2022-10-11T14:43:07.556Z,1192.00
2022-10-11T14:44:07.444Z,1152.00
2022-10-11T14:46:11.814Z,1108.00
2022-10-11T14:47:11.733Z,1076.00
2022-10-11T14:49:16.074Z,1036.00
2022-10-11T14:50:23.645Z,984.00
2022-10-11T14:52:20.361Z,952.00
2022-10-11T14:53:20.296Z,928.00
2022-10-11T14:54:20.248Z,884.00
2022-10-11T14:55:20.164Z,872.00
2022-10-11T14:56:21.637Z,856.00
2022-10-11T14:57:20.047Z,820.00
2022-10-11T14:58:19.980Z,772.00
2022-10-11T14:59:27.587Z,728.00
2022-10-11T15:01:24.334Z,660.00
2022-10-11T15:02:24.184Z,652.00
2022-10-11T15:04:28.607Z,620.00
2022-10-11T15:05:33.424Z,588.00
2022-10-11T15:07:32.800Z,540.00
2022-10-11T15:08:32.729Z,532.00
2022-10-11T15:10:37.085Z,504.00
2022-10-11T15:11:36.996Z,492.00
2022-10-11T15:15:16.869Z,476.00
2022-10-11T15:16:13.685Z,468.00
2022-10-11T15:18:18.064Z,460.00
2022-10-11T15:19:17.951Z,460.00
2022-10-11T15:20:17.894Z,460.00
2022-10-11T15:21:17.829Z,472.00
2022-10-11T15:22:17.777Z,480.00
2022-10-11T15:23:17.710Z,484.00
2022-10-11T15:24:17.650Z,480.00
2022-10-11T15:25:17.598Z,480.00
2022-10-11T15:26:17.525Z,484.00
2022-10-11T15:27:17.455Z,480.00
2022-10-11T15:28:17.436Z,476.00
2022-10-11T15:29:17.338Z,464.00
2022-10-11T15:30:17.276Z,460.00
2022-10-11T15:31:17.266Z,448.00
2022-10-11T15:33:54.516Z,412.00
2022-10-11T15:36:28.800Z,368.00
2022-10-11T15:37:28.406Z,352.00
2022-10-11T15:39:34.043Z,328.00
2022-10-11T15:40:33.695Z,312.00
2022-10-11T15:44:00.568Z,296.00
2022-10-11T15:44:59.930Z,288.00
2022-10-11T15:47:07.308Z,272.00
2022-10-11T15:48:06.890Z,268.00
2022-10-11T15:50:11.424Z,260.00
2022-10-11T15:51:11.186Z,256.00
2022-10-11T15:52:11.119Z,252.00
2022-10-11T15:53:11.065Z,248.00
2022-10-11T15:54:11.023Z,240.00
2022-10-11T15:55:10.958Z,236.00
2022-10-11T15:56:11.289Z,228.00
2022-10-11T15:57:10.811Z,220.00
2022-10-11T15:58:10.747Z,212.00
2022-10-11T15:59:10.688Z,208.00
2022-10-11T16:00:10.624Z,208.00
2022-10-11T16:01:10.695Z,208.00
2022-10-11T16:02:10.554Z,196.00
2022-10-11T16:03:10.822Z,192.00
2022-10-11T16:23:51.699Z,72.00
2022-10-11T16:24:51.297Z,68.00
2022-10-11T16:43:31.664Z,16.00
2022-10-11T16:44:31.411Z,16.00
2022-10-11T16:45:31.695Z,12.00
2022-10-11T16:46:31.186Z,16.00
2022-10-11T16:47:31.103Z,12.00
2022-10-11T16:48:31.037Z,12.00
2022-10-11T16:49:30.971Z,12.00
2022-10-11T16:50:33.390Z,8.00
2022-10-11T16:51:30.882Z,12.00
2022-10-11T16:52:30.788Z,8.00
2022-10-11T16:53:30.729Z,8.00
2022-10-11T16:54:30.662Z,8.00
2022-10-11T16:55:30.598Z,8.00
2022-10-11T16:56:30.542Z,12.00
2022-10-11T16:58:51.207Z,8.00
2022-10-11T16:59:50.946Z,8.00
2022-10-11T17:06:20.612Z,8.00
2022-10-11T17:07:20.198Z,8.00
2022-10-11T17:08:20.137Z,8.00
2022-10-11T17:09:20.077Z,8.00
2022-10-11T17:10:20.734Z,8.00
2022-10-11T17:11:19.954Z,8.00
2022-10-11T17:12:19.892Z,8.00
2022-10-11T17:13:19.840Z,8.00
2022-10-11T17:14:19.784Z,8.00
2022-10-11T17:15:19.963Z,8.00
2022-10-11T17:16:19.638Z,8.00
2022-10-11T17:17:19.584Z,8.00
2022-10-11T17:18:19.516Z,8.00
2022-10-11T17:19:19.452Z,8.00
2022-10-11T17:20:19.391Z,8.00
2022-10-11T17:21:19.335Z,8.00
2022-10-11T17:22:29.145Z,8.00
2022-10-11T17:24:23.864Z,8.00
2022-10-11T17:25:23.562Z,8.00
2022-10-11T17:27:29.156Z,8.00
2022-10-11T17:28:28.935Z,8.00
2022-10-11T17:30:34.427Z,8.00
2022-10-11T17:31:34.125Z,8.00
2022-10-11T17:33:38.502Z,8.00
2022-10-11T17:34:38.415Z,8.00
2022-10-11T17:36:44.209Z,8.00
2022-10-11T17:37:43.711Z,8.00
2022-10-11T17:39:48.057Z,8.00
2022-10-11T17:40:47.974Z,8.00
2022-10-11T17:44:23.744Z,8.00
2022-10-11T17:45:23.642Z,8.00
2022-10-11T17:47:17.193Z,8.00
2022-10-11T17:48:17.092Z,8.00
2022-10-11T17:50:21.706Z,8.00
2022-10-11T17:51:21.351Z,8.00
2022-10-11T17:54:58.412Z,8.00
2022-10-11T17:55:58.056Z,8.00
2022-10-11T17:58:02.693Z,8.00
2022-10-11T17:59:02.334Z,8.00
2022-10-11T18:01:09.883Z,8.00
2022-10-11T18:02:09.232Z,8.00
2022-10-11T18:03:09.150Z,8.00
2022-10-11T18:04:09.087Z,8.00
2022-10-11T18:05:09.031Z,8.00
2022-10-11T18:06:08.966Z,8.00
2022-10-11T18:07:08.901Z,8.00
2022-10-11T18:08:08.847Z,8.00
2022-10-11T18:09:08.794Z,8.00
2022-10-11T18:10:08.716Z,8.00
2022-10-11T18:11:08.846Z,8.00
2022-10-11T18:12:08.597Z,8.00
2022-10-11T18:13:11.974Z,8.00
2022-10-11T18:14:08.468Z,8.00
2022-10-11T18:15:08.875Z,8.00
2022-10-11T18:16:09.441Z,8.00
2022-10-11T18:17:08.284Z,8.00
2022-10-11T18:18:08.257Z,8.00
2022-10-11T18:19:08.352Z,8.00
2022-10-11T18:20:08.161Z,8.00
2022-10-11T18:21:08.133Z,8.00
2022-10-11T18:22:08.137Z,8.00
2022-10-11T18:23:08.014Z,8.00
2022-10-11T18:24:07.791Z,8.00
2022-10-11T18:25:07.855Z,8.00
2022-10-11T18:26:07.983Z,8.00
2022-10-11T18:27:07.662Z,8.00
2022-10-11T18:28:07.503Z,8.00
2022-10-11T18:29:07.603Z,8.00
2022-10-11T18:30:07.685Z,8.00
2022-10-11T18:31:12.371Z,8.00
2022-10-11T18:32:07.494Z,8.00
2022-10-11T18:33:07.466Z,8.00
2022-10-11T18:34:07.467Z,8.00
2022-10-11T18:35:07.156Z,8.00
2022-10-11T18:36:07.335Z,8.00
2022-10-11T18:37:07.082Z,8.00
2022-10-11T18:38:07.044Z,8.00
2022-10-11T18:39:09.009Z,8.00
2022-10-11T18:40:06.744Z,8.00
2022-10-11T18:41:07.344Z,8.00
2022-10-11T18:42:06.956Z,8.00
2022-10-11T18:43:06.587Z,8.00
2022-10-11T18:44:08.543Z,8.00
2022-10-11T18:45:06.751Z,8.00
2022-10-11T18:46:06.406Z,8.00
2022-10-11T18:47:06.455Z,8.00
2022-10-11T18:48:06.450Z,8.00
2022-10-11T18:49:06.441Z,8.00
2022-10-11T18:50:06.361Z,8.00
2022-10-11T18:51:06.524Z,8.00
2022-10-11T18:52:06.172Z,8.00
2022-10-11T18:53:06.176Z,8.00
2022-10-11T18:54:05.911Z,8.00
2022-10-11T18:55:06.006Z,8.00
2022-10-11T18:56:06.123Z,8.00
2022-10-11T18:57:05.920Z,8.00
2022-10-11T18:58:05.737Z,8.00
2022-10-11T18:59:05.632Z,8.00
2022-10-11T19:00:16.823Z,8.00
2022-10-11T19:01:05.589Z,8.00
2022-10-11T19:02:05.395Z,8.00
2022-10-11T19:03:05.628Z,8.00
2022-10-11T19:04:05.428Z,8.00
2022-10-11T19:05:05.337Z,8.00
2022-10-11T19:06:05.539Z,8.00
2022-10-11T19:07:05.275Z,8.00
2022-10-11T19:08:05.073Z,8.00
2022-10-11T19:09:05.066Z,8.00
2022-10-11T19:10:07.844Z,8.00
2022-10-11T19:11:04.975Z,8.00
2022-10-11T19:12:04.945Z,8.00
2022-10-11T19:13:06.478Z,8.00
2022-10-11T19:14:04.638Z,8.00
2022-10-11T19:15:04.799Z,8.00
2022-10-11T19:16:04.953Z,8.00
2022-10-11T19:17:04.462Z,8.00
2022-10-11T19:18:04.536Z,8.00
2022-10-11T19:19:04.585Z,8.00
2022-10-11T19:20:04.537Z,8.00
2022-10-11T19:21:04.604Z,8.00
2022-10-11T19:22:04.275Z,8.00
2022-10-11T19:23:04.293Z,8.00
2022-10-11T19:24:04.155Z,8.00
2022-10-11T19:25:04.158Z,8.00
2022-10-11T19:26:05.946Z,8.00
2022-10-11T19:27:03.909Z,8.00
2022-10-11T19:28:05.304Z,8.00
2022-10-11T19:29:04.062Z,8.00
2022-10-11T19:30:03.620Z,8.00
2022-10-11T19:31:04.010Z,8.00
2022-10-11T19:32:03.700Z,8.00
2022-10-11T19:33:03.510Z,8.00
2022-10-11T19:34:03.643Z,8.00
2022-10-11T19:35:03.580Z,8.00
2022-10-11T19:36:03.262Z,8.00
2022-10-11T19:37:03.447Z,8.00
2022-10-11T19:38:03.220Z,8.00
2022-10-11T19:39:04.806Z,8.00
2022-10-11T19:40:03.094Z,8.00
2022-10-11T19:41:03.044Z,8.00
2022-10-11T19:42:03.007Z,8.00
2022-10-11T19:43:02.811Z,8.00
2022-10-11T19:44:02.857Z,8.00
2022-10-11T19:45:02.872Z,8.00
2022-10-11T19:46:02.627Z,8.00
2022-10-11T19:47:05.153Z,8.00
2022-10-11T19:48:02.610Z,8.00
2022-10-11T19:49:02.594Z,8.00
2022-10-11T19:50:02.562Z,8.00
2022-10-11T19:51:02.544Z,8.00
2022-10-11T19:52:02.254Z,8.00
2022-10-11T19:53:02.413Z,8.00
2022-10-11T19:54:02.292Z,8.00
2022-10-11T19:55:02.054Z,8.00
2022-10-11T19:56:02.223Z,8.00
2022-10-11T19:57:02.151Z,8.00
2022-10-11T19:58:08.321Z,8.00
2022-10-11T19:59:02.008Z,8.00
2022-10-11T20:00:02.006Z,8.00
2022-10-11T20:01:03.322Z,8.00
2022-10-11T20:02:01.664Z,8.00
2022-10-11T20:03:01.572Z,8.00
2022-10-11T20:04:01.833Z,8.00
2022-10-11T20:05:02.729Z,8.00
2022-10-11T20:06:01.507Z,8.00
2022-10-11T20:07:01.535Z,8.00
2022-10-11T20:08:03.177Z,8.00
2022-10-11T20:09:27.374Z,8.00
2022-10-11T20:10:01.384Z,8.00
2022-10-11T20:11:01.074Z,8.00
2022-10-11T20:12:01.068Z,8.00
2022-10-11T20:13:01.159Z,8.00
2022-10-11T20:14:01.026Z,8.00
2022-10-11T20:15:01.062Z,8.00
2022-10-11T20:16:00.981Z,8.00
2022-10-11T20:17:00.735Z,8.00
2022-10-11T20:18:00.719Z,8.00
2022-10-11T20:19:00.771Z,8.00
2022-10-11T20:20:00.560Z,8.00
2022-10-11T20:21:00.477Z,8.00
2022-10-11T20:22:00.624Z,8.00
2022-10-11T20:23:00.594Z,8.00
2022-10-11T20:24:01.949Z,8.00
2022-10-11T20:25:00.374Z,8.00
2022-10-11T20:26:00.443Z,8.00
2022-10-11T20:27:00.222Z,8.00
2022-10-11T20:28:00.358Z,8.00
2022-10-11T20:29:00.245Z,8.00
2022-10-11T20:29:59.934Z,8.00
2022-10-11T20:31:00.109Z,8.00
2022-10-11T20:32:00.064Z,8.00
2022-10-11T20:33:00.000Z,8.00
2022-10-11T20:33:59.669Z,8.00
2022-10-11T20:34:59.829Z,8.00
2022-10-11T20:36:01.646Z,8.00
2022-10-11T20:36:59.698Z,8.00
2022-10-11T20:37:59.633Z,8.00
2022-10-11T20:38:59.378Z,8.00
2022-10-11T20:39:59.494Z,8.00
2022-10-11T20:40:59.313Z,8.00
2022-10-11T20:41:59.240Z,8.00
2022-10-11T20:42:59.255Z,8.00
2022-10-11T20:43:59.343Z,8.00
2022-10-11T20:45:01.093Z,8.00
2022-10-11T20:45:58.962Z,8.00
2022-10-11T20:47:03.091Z,8.00
2022-10-11T20:48:00.441Z,8.00
2022-10-11T20:49:01.525Z,8.00
2022-10-11T20:49:58.643Z,8.00
2022-10-11T20:50:58.755Z,8.00
2022-10-11T20:52:00.696Z,8.00
2022-10-11T20:52:58.707Z,8.00
2022-10-11T20:53:58.631Z,8.00
2022-10-11T20:54:58.585Z,8.00
2022-10-11T20:55:58.289Z,8.00
2022-10-11T20:56:58.358Z,8.00
2022-10-11T20:57:58.385Z,8.00
2022-10-11T20:58:59.225Z,8.00
2022-10-11T20:59:58.268Z,8.00
2022-10-11T21:00:57.958Z,8.00
2022-10-11T21:01:58.100Z,8.00
2022-10-11T21:02:57.954Z,8.00
2022-10-11T21:03:57.921Z,8.00
2022-10-11T21:04:57.768Z,8.00
2022-10-11T21:05:57.905Z,8.00
2022-10-11T21:06:57.699Z,8.00
2022-10-11T21:07:57.660Z,8.00
2022-10-11T21:08:57.708Z,8.00
2022-10-11T21:09:57.557Z,8.00
2022-10-11T21:10:57.535Z,8.00
2022-10-11T21:11:57.581Z,8.00
2022-10-11T21:12:57.365Z,8.00
2022-10-11T21:13:57.336Z,8.00
2022-10-11T21:14:57.030Z,8.00
2022-10-11T21:15:58.817Z,8.00
2022-10-11T21:16:57.161Z,8.00
2022-10-11T21:17:56.858Z,8.00
2022-10-11T21:18:56.953Z,8.00
2022-10-11T21:19:56.778Z,8.00
2022-10-11T21:20:56.818Z,8.00
2022-10-11T21:21:56.830Z,8.00
2022-10-11T21:22:56.699Z,8.00
2022-10-11T21:23:56.674Z,8.00
2022-10-11T21:24:56.389Z,8.00
2022-10-11T21:25:56.458Z,8.00
2022-10-11T21:27:00.426Z,8.00
2022-10-11T21:27:56.394Z,8.00
2022-10-11T21:28:56.513Z,8.00
2022-10-11T21:29:56.280Z,8.00
2022-10-11T21:30:56.391Z,8.00
2022-10-11T21:31:57.974Z,8.00
2022-10-11T21:32:57.027Z,8.00
2022-10-11T21:33:56.046Z,8.00
2022-10-11T21:34:55.924Z,8.00
2022-10-11T21:35:55.688Z,8.00
2022-10-11T21:36:55.838Z,8.00
2022-10-11T21:37:55.820Z,8.00
2022-10-11T21:38:57.501Z,8.00
2022-10-11T21:39:55.557Z,8.00
2022-10-11T21:40:55.541Z,8.00
2022-10-11T21:41:55.489Z,8.00
2022-10-11T21:42:55.400Z,8.00
2022-10-11T21:43:55.392Z,8.00
2022-10-11T21:44:55.202Z,8.00
2022-10-11T21:45:55.218Z,8.00
2022-10-11T21:47:06.755Z,8.00
2022-10-11T21:47:55.114Z,8.00
2022-10-11T21:48:54.994Z,8.00
2022-10-11T21:49:54.909Z,8.00
2022-10-11T21:50:54.880Z,8.00
2022-10-11T21:51:54.849Z,8.00
2022-10-11T21:52:54.769Z,8.00
2022-10-11T21:53:54.557Z,8.00
2022-10-11T21:54:54.535Z,8.00
2022-10-11T21:55:54.558Z,8.00
2022-10-11T21:56:54.562Z,8.00
2022-10-11T21:57:54.553Z,8.00
2022-10-11T21:58:54.412Z,8.00
2022-10-11T21:59:56.855Z,8.00
2022-10-11T22:00:54.389Z,8.00
2022-10-11T22:01:58.086Z,8.00
2022-10-11T22:02:55.845Z,8.00
2022-10-11T22:03:54.921Z,8.00
2022-10-11T22:04:54.054Z,8.00
2022-10-11T22:05:53.924Z,8.00
2022-10-11T22:06:53.830Z,8.00
2022-10-11T22:07:53.718Z,8.00
2022-10-11T22:08:53.735Z,8.00
2022-10-11T22:09:53.842Z,8.00
2022-10-11T22:10:53.688Z,8.00
2022-10-11T22:11:53.591Z,8.00
2022-10-11T22:12:55.318Z,8.00
2022-10-11T22:13:53.272Z,8.00
2022-10-11T22:14:53.307Z,8.00
2022-10-11T22:15:53.361Z,8.00
2022-10-11T22:16:53.144Z,8.00
2022-10-11T22:17:53.194Z,8.00
2022-10-11T22:18:56.849Z,8.00
2022-10-11T22:19:54.838Z,8.00
2022-10-11T22:20:54.848Z,8.00
2022-10-11T22:21:52.954Z,8.00
2022-10-11T22:22:52.890Z,8.00
2022-10-11T22:23:52.795Z,8.00
2022-10-11T22:24:52.736Z,8.00
2022-10-11T22:25:52.664Z,8.00
2022-10-11T22:26:52.505Z,8.00
2022-10-11T22:27:52.626Z,8.00
2022-10-11T22:28:52.573Z,8.00
2022-10-11T22:29:52.315Z,8.00
2022-10-11T22:30:52.354Z,8.00
2022-10-11T23:05:16.833Z,8.00
2022-10-11T23:06:16.409Z,8.00
2022-10-11T23:21:55.057Z,8.00
2022-10-11T23:22:54.417Z,8.00
